createdAt,value
2018-06-11T00:01:06.735Z,3.60
2018-06-11T00:03:34.265Z,3.30
2018-06-11T00:06:02.135Z,2.60
2018-06-11T00:08:29.725Z,3.10
2018-06-11T00:10:57.302Z,3.77
2018-06-11T00:13:24.844Z,3.70
2018-06-11T00:15:54.383Z,2.80
2018-06-11T00:18:21.943Z,2.13
2018-06-11T00:20:49.580Z,2.50
2018-06-11T00:23:17.148Z,3.07
2018-06-11T00:25:44.727Z,2.43
2018-06-11T00:28:12.279Z,2.47
2018-06-11T00:30:39.878Z,3.33
2018-06-11T00:33:07.402Z,4.13
2018-06-11T00:35:34.951Z,4.43
2018-06-11T00:38:02.457Z,2.80
2018-06-11T00:40:30.033Z,2.60
2018-06-11T00:42:57.560Z,3.50
2018-06-11T00:45:25.115Z,3.77
2018-06-11T00:47:52.743Z,2.97
2018-06-11T00:50:20.315Z,2.70
2018-06-11T00:52:47.890Z,2.97
2018-06-11T00:55:15.519Z,3.67
2018-06-11T00:57:43.069Z,3.47
2018-06-11T01:00:10.626Z,3.47
2018-06-11T01:02:38.204Z,2.50
2018-06-11T01:05:05.755Z,3.27
2018-06-11T01:07:33.276Z,4.07
2018-06-11T01:10:00.837Z,2.37
2018-06-11T01:12:29.315Z,4.97
2018-06-11T01:14:58.047Z,2.70
2018-06-11T01:17:25.931Z,4.47
2018-06-11T01:19:53.469Z,5.57
2018-06-11T01:22:21.039Z,3.60
2018-06-11T01:24:48.591Z,2.57
2018-06-11T01:27:16.161Z,3.13
2018-06-11T01:29:43.737Z,5.83
2018-06-11T01:32:11.298Z,6.53
2018-06-11T01:34:38.826Z,6.97
2018-06-11T01:37:06.494Z,9.03
2018-06-11T01:39:33.986Z,5.10
2018-06-11T01:42:01.481Z,5.03
2018-06-11T01:44:29.010Z,4.60
2018-06-11T01:46:56.537Z,2.77
2018-06-11T01:49:24.138Z,2.60
2018-06-11T01:51:51.654Z,3.07
2018-06-11T01:54:19.412Z,3.60
2018-06-11T01:56:46.912Z,2.87
2018-06-11T01:59:14.406Z,3.60
2018-06-11T02:01:41.933Z,4.50
2018-06-11T02:04:09.449Z,4.10
2018-06-11T02:06:37.514Z,3.63
2018-06-11T02:09:06.597Z,3.20
2018-06-11T02:11:34.288Z,4.73
2018-06-11T02:14:01.931Z,3.93
2018-06-11T02:16:29.466Z,5.20
2018-06-11T02:18:56.952Z,3.23
2018-06-11T02:21:24.445Z,3.60
2018-06-11T02:23:51.994Z,3.10
2018-06-11T02:26:19.526Z,4.37
2018-06-11T02:28:47.077Z,3.40
2018-06-11T02:31:14.590Z,3.80
2018-06-11T02:33:42.534Z,5.50
2018-06-11T02:36:10.119Z,3.03
2018-06-11T02:38:38.009Z,3.13
2018-06-11T02:41:05.572Z,4.00
2018-06-11T02:43:33.107Z,4.27
2018-06-11T02:46:00.643Z,2.50
2018-06-11T02:48:28.135Z,4.13
2018-06-11T02:50:55.740Z,3.23
2018-06-11T02:53:23.227Z,3.63
2018-06-11T02:55:50.987Z,2.43
2018-06-11T02:58:18.514Z,5.03
2018-06-11T03:00:46.023Z,4.83
2018-06-11T03:03:13.560Z,3.53
2018-06-11T03:05:41.211Z,2.67
2018-06-11T03:08:08.723Z,3.60
2018-06-11T03:10:36.325Z,3.10
2018-06-11T03:13:04.146Z,3.07
2018-06-11T03:15:31.727Z,3.63
2018-06-11T03:17:59.252Z,4.60
2018-06-11T03:20:27.009Z,3.60
2018-06-11T03:22:54.490Z,3.03
2018-06-11T03:25:22.014Z,3.57
2018-06-11T03:27:49.486Z,4.20
2018-06-11T03:30:17.307Z,2.40
2018-06-11T03:32:45.969Z,3.77
2018-06-11T03:35:13.491Z,4.17
2018-06-11T03:37:41.037Z,3.67
2018-06-11T03:40:08.554Z,3.23
2018-06-11T03:42:36.046Z,4.50
2018-06-11T03:45:03.729Z,4.47
2018-06-11T03:47:31.230Z,5.17
2018-06-11T03:49:58.731Z,3.40
2018-06-11T03:52:26.263Z,3.20
2018-06-11T03:54:53.762Z,3.73
2018-06-11T03:57:21.289Z,8.70
2018-06-11T03:59:48.844Z,4.37
2018-06-11T04:02:16.347Z,3.73
2018-06-11T04:04:43.885Z,3.17
2018-06-11T04:07:11.401Z,3.50
2018-06-11T04:09:38.929Z,5.23
2018-06-11T04:12:06.385Z,4.60
2018-06-11T04:14:33.882Z,10.37
2018-06-11T04:17:02.068Z,6.87
2018-06-11T04:19:29.642Z,4.30
2018-06-11T04:21:57.098Z,6.33
2018-06-11T04:24:24.598Z,3.50
2018-06-11T04:26:52.416Z,3.30
2018-06-11T04:29:19.992Z,4.53
2018-06-11T04:31:47.525Z,9.53
2018-06-11T04:34:16.126Z,6.63
2018-06-11T04:36:43.665Z,6.83
2018-06-11T04:39:11.178Z,5.13
2018-06-11T04:41:40.658Z,6.03
2018-06-11T04:44:08.215Z,6.93
2018-06-11T04:46:35.777Z,4.53
2018-06-11T04:49:03.332Z,6.77
2018-06-11T04:51:30.893Z,6.00
2018-06-11T04:53:58.457Z,8.60
2018-06-11T04:56:31.697Z,7.70
2018-06-11T04:58:59.201Z,9.00
2018-06-11T05:01:26.813Z,12.13
2018-06-11T05:03:54.414Z,9.93
2018-06-11T05:06:21.982Z,6.73
2018-06-11T05:08:50.912Z,6.80
2018-06-11T05:11:18.580Z,7.90
2018-06-11T05:13:46.073Z,7.43
2018-06-11T05:16:13.638Z,6.80
2018-06-11T05:18:41.660Z,6.43
2018-06-11T05:21:10.506Z,8.63
2018-06-11T05:23:41.878Z,7.90
2018-06-11T05:26:09.442Z,8.53
2018-06-11T05:28:36.962Z,6.80
2018-06-11T05:31:04.518Z,9.43
2018-06-11T05:33:32.081Z,8.87
2018-06-11T05:35:59.797Z,6.17
2018-06-11T05:38:27.357Z,5.83
2018-06-11T05:40:54.859Z,6.80
2018-06-11T05:43:22.378Z,13.57
2018-06-11T05:45:49.884Z,12.27
2018-06-11T05:48:17.379Z,9.30
2018-06-11T05:50:44.882Z,11.90
2018-06-11T05:53:12.374Z,10.27
2018-06-11T05:55:39.938Z,6.97
2018-06-11T05:58:07.469Z,6.37
2018-06-11T06:00:34.999Z,8.70
2018-06-11T06:03:02.510Z,9.07
2018-06-11T06:05:30.039Z,7.07
2018-06-11T06:07:57.526Z,7.60
2018-06-11T06:10:25.073Z,6.47
2018-06-11T06:12:52.734Z,7.90
2018-06-11T06:15:20.242Z,8.00
2018-06-11T06:17:47.772Z,9.17
2018-06-11T06:20:15.561Z,11.10
2018-06-11T06:22:43.069Z,10.33
2018-06-11T06:25:10.802Z,9.17
2018-06-11T06:27:38.318Z,8.93
2018-06-11T06:30:05.935Z,8.93
2018-06-11T06:32:33.474Z,8.47
2018-06-11T06:35:01.013Z,8.30
2018-06-11T06:37:28.538Z,7.17
2018-06-11T06:39:56.145Z,7.90
2018-06-11T06:42:23.671Z,10.30
2018-06-11T06:44:51.454Z,10.83
2018-06-11T06:47:20.467Z,7.03
2018-06-11T06:49:48.228Z,10.20
2018-06-11T06:52:16.835Z,7.27
2018-06-11T06:54:44.373Z,8.00
2018-06-11T06:57:12.146Z,7.57
2018-06-11T06:59:39.791Z,6.60
2018-06-11T07:02:07.306Z,7.07
2018-06-11T07:04:35.012Z,10.43
2018-06-11T07:07:02.683Z,6.47
2018-06-11T07:09:30.271Z,6.97
2018-06-11T07:11:57.783Z,5.93
2018-06-11T07:14:25.382Z,7.80
2018-06-11T07:16:52.960Z,4.87
2018-06-11T07:19:20.518Z,5.47
2018-06-11T07:21:48.046Z,6.00
2018-06-11T07:24:15.605Z,6.50
2018-06-11T07:26:43.144Z,7.33
2018-06-11T07:29:11.211Z,5.23
2018-06-11T07:31:38.739Z,5.83
2018-06-11T07:34:06.333Z,4.50
2018-06-11T07:36:33.854Z,5.07
2018-06-11T07:39:01.408Z,6.20
2018-06-11T07:41:28.910Z,6.40
2018-06-11T07:43:56.402Z,5.00
2018-06-11T07:46:23.952Z,5.13
2018-06-11T07:48:51.507Z,8.70
2018-06-11T07:51:19.298Z,7.30
2018-06-11T07:53:46.846Z,3.87
2018-06-11T07:56:14.357Z,5.30
2018-06-11T07:58:41.876Z,4.57
2018-06-11T08:01:09.370Z,5.40
2018-06-11T08:03:36.858Z,4.73
2018-06-11T08:06:04.462Z,5.33
2018-06-11T08:08:31.973Z,4.73
2018-06-11T08:10:59.543Z,4.00
2018-06-11T08:13:27.060Z,4.43
2018-06-11T08:15:54.560Z,4.10
2018-06-11T08:18:22.122Z,4.87
2018-06-11T08:20:49.666Z,5.60
2018-06-11T08:23:17.148Z,4.70
2018-06-11T08:25:44.648Z,7.13
2018-06-11T08:28:12.155Z,5.30
2018-06-11T08:30:39.659Z,6.13
2018-06-11T08:33:07.210Z,6.03
2018-06-11T08:35:34.740Z,4.60
2018-06-11T08:38:02.330Z,5.13
2018-06-11T08:40:29.863Z,6.10
2018-06-11T08:42:57.410Z,4.37
2018-06-11T08:45:24.937Z,7.33
2018-06-11T08:47:52.462Z,5.83
2018-06-11T08:50:19.990Z,7.03
2018-06-11T08:52:47.487Z,3.90
2018-06-11T08:55:17.373Z,5.17
2018-06-11T08:57:44.929Z,5.30
2018-06-11T09:00:12.525Z,5.60
2018-06-11T09:02:40.053Z,6.10
2018-06-11T09:05:07.568Z,6.37
2018-06-11T09:07:35.074Z,4.70
2018-06-11T09:10:02.647Z,3.70
2018-06-11T09:12:30.164Z,7.10
2018-06-11T09:14:57.668Z,4.25
2018-06-11T09:17:25.166Z,4.35
2018-06-11T09:19:52.641Z,7.53
2018-06-11T09:22:20.121Z,8.68
2018-06-11T09:24:47.622Z,6.85
2018-06-11T09:27:15.109Z,3.50
2018-06-11T09:29:42.597Z,4.25
2018-06-11T09:32:10.063Z,4.60
2018-06-11T09:34:37.542Z,4.20
2018-06-11T09:37:05.083Z,6.08
2018-06-11T09:39:32.694Z,5.92
2018-06-11T09:42:00.210Z,3.83
2018-06-11T09:44:27.708Z,3.95
2018-06-11T09:46:55.197Z,6.05
2018-06-11T09:49:22.683Z,8.40
2018-06-11T09:51:50.173Z,8.35
2018-06-11T09:54:17.654Z,9.53
2018-06-11T09:56:45.284Z,4.78
2018-06-11T09:59:13.203Z,6.03
2018-06-11T10:01:40.716Z,7.92
2018-06-11T10:04:08.188Z,5.25
2018-06-11T10:06:35.727Z,5.17
2018-06-11T10:09:05.318Z,6.22
2018-06-11T10:11:32.857Z,5.55
2018-06-11T10:14:00.325Z,6.90
2018-06-11T10:16:27.862Z,4.42
2018-06-11T10:18:55.316Z,6.58
2018-06-11T10:21:22.809Z,6.92
2018-06-11T10:23:50.290Z,7.42
2018-06-11T10:26:17.787Z,6.35
2018-06-11T10:28:45.335Z,10.25
2018-06-11T10:31:12.913Z,5.85
2018-06-11T10:33:40.914Z,7.62
2018-06-11T10:36:08.409Z,10.32
2018-06-11T10:38:35.897Z,7.78
2018-06-11T10:41:03.380Z,4.97
2018-06-11T10:43:31.058Z,4.67
2018-06-11T10:45:58.574Z,3.95
2018-06-11T10:48:26.050Z,4.62
2018-06-11T10:50:53.576Z,6.97
2018-06-11T10:53:21.062Z,8.65
2018-06-11T10:55:48.590Z,4.62
2018-06-11T10:58:16.117Z,5.25
2018-06-11T11:00:43.694Z,6.05
2018-06-11T11:03:11.444Z,9.33
2018-06-11T11:05:39.114Z,9.45
2018-06-11T11:08:06.610Z,8.28
2018-06-11T11:10:34.143Z,13.13
2018-06-11T11:13:01.667Z,5.55
2018-06-11T11:15:29.171Z,9.85
2018-06-11T11:17:56.657Z,6.28
2018-06-11T11:20:24.475Z,4.35
2018-06-11T11:22:52.019Z,3.75
2018-06-11T11:25:19.585Z,7.87
2018-06-11T11:27:47.148Z,7.22
2018-06-11T11:30:14.706Z,8.68
2018-06-11T11:32:42.246Z,6.78
2018-06-11T11:35:09.806Z,13.62
2018-06-11T11:37:37.327Z,9.60
2018-06-11T11:40:04.881Z,9.83
2018-06-11T11:42:32.383Z,11.53
2018-06-11T11:44:59.977Z,8.30
2018-06-11T11:47:27.481Z,13.50
2018-06-11T11:49:54.978Z,9.85
2018-06-11T11:52:23.535Z,10.63
2018-06-11T11:54:51.575Z,14.15
2018-06-11T11:57:19.046Z,10.45
2018-06-11T11:59:47.674Z,9.55
2018-06-11T12:02:15.179Z,11.63
2018-06-11T12:04:42.662Z,5.37
2018-06-11T12:07:10.121Z,8.80
2018-06-11T12:09:39.946Z,6.00
2018-06-11T12:12:07.462Z,7.28
2018-06-11T12:14:34.974Z,9.40
2018-06-11T12:17:02.499Z,7.55
2018-06-11T12:19:30.003Z,10.20
2018-06-11T12:21:57.489Z,8.28
2018-06-11T12:24:25.132Z,7.85
2018-06-11T12:26:52.683Z,6.80
2018-06-11T12:29:20.182Z,8.98
2018-06-11T12:31:47.666Z,12.82
2018-06-11T12:34:15.113Z,4.92
2018-06-11T12:36:42.610Z,6.30
2018-06-11T12:39:10.149Z,9.95
2018-06-11T12:41:37.635Z,8.00
2018-06-11T12:44:05.172Z,11.78
2018-06-11T12:46:32.703Z,9.08
2018-06-11T12:49:00.312Z,8.23
2018-06-11T12:51:27.819Z,8.88
2018-06-11T12:53:55.329Z,7.78
2018-06-11T12:56:22.897Z,13.22
2018-06-11T12:58:50.446Z,8.90
2018-06-11T13:01:17.979Z,11.97
2018-06-11T13:03:45.491Z,9.38
2018-06-11T13:06:13.271Z,10.25
2018-06-11T13:08:40.804Z,5.47
2018-06-11T13:11:08.405Z,11.75
2018-06-11T13:13:36.191Z,9.88
2018-06-11T13:16:03.731Z,8.68
2018-06-11T13:18:31.247Z,10.32
2018-06-11T13:20:58.806Z,5.60
2018-06-11T13:23:26.341Z,7.50
2018-06-11T13:25:53.842Z,6.45
2018-06-11T13:28:21.351Z,7.20
2018-06-11T13:30:48.850Z,14.47
2018-06-11T13:33:16.409Z,7.40
2018-06-11T13:35:43.941Z,15.85
2018-06-11T13:38:11.464Z,12.85
2018-06-11T13:40:38.962Z,9.58
2018-06-11T13:43:06.498Z,8.03
2018-06-11T13:45:34.024Z,13.68
2018-06-11T13:48:01.523Z,12.23
2018-06-11T13:50:29.014Z,13.38
2018-06-11T13:52:56.523Z,12.30
2018-06-11T13:55:24.021Z,11.75
2018-06-11T13:57:51.584Z,12.68
2018-06-11T14:00:19.197Z,12.63
2018-06-11T14:02:46.715Z,15.63
2018-06-11T14:05:14.284Z,6.83
2018-06-11T14:07:41.942Z,14.38
2018-06-11T14:10:09.438Z,11.70
2018-06-11T14:12:37.063Z,12.70
2018-06-11T14:15:04.668Z,8.43
2018-06-11T14:17:32.157Z,10.28
2018-06-11T14:19:59.721Z,5.10
2018-06-11T14:22:27.201Z,10.15
2018-06-11T14:24:54.701Z,9.68
2018-06-11T14:27:22.186Z,5.42
2018-06-11T14:29:49.704Z,8.35
2018-06-11T14:32:17.281Z,10.88
2018-06-11T14:34:44.815Z,6.00
2018-06-11T14:37:12.398Z,9.83
2018-06-11T14:39:39.873Z,11.50
2018-06-11T14:42:07.416Z,13.35
2018-06-11T14:44:34.987Z,7.05
2018-06-11T14:47:02.494Z,6.95
2018-06-11T14:49:30.009Z,7.17
2018-06-11T14:51:57.530Z,11.78
2018-06-11T14:54:25.085Z,5.08
2018-06-11T14:56:52.654Z,3.87
2018-06-11T14:59:20.308Z,6.78
2018-06-11T15:01:47.806Z,7.08
2018-06-11T15:04:15.345Z,10.55
2018-06-11T15:06:42.853Z,6.90
2018-06-11T15:09:10.361Z,8.20
2018-06-11T15:11:37.915Z,5.53
2018-06-11T15:14:05.458Z,8.63
2018-06-11T15:16:32.976Z,3.83
2018-06-11T15:19:01.565Z,4.45
2018-06-11T15:21:29.168Z,6.50
2018-06-11T15:23:56.725Z,6.63
2018-06-11T15:26:24.232Z,8.60
2018-06-11T15:28:51.669Z,3.67
2018-06-11T15:31:19.169Z,3.30
2018-06-11T15:33:46.693Z,9.80
2018-06-11T15:36:14.261Z,5.13
2018-06-11T15:38:41.782Z,4.20
2018-06-11T15:41:09.266Z,4.63
2018-06-11T15:43:36.886Z,7.40
2018-06-11T15:46:04.485Z,5.50
2018-06-11T15:48:31.971Z,4.50
2018-06-11T15:50:59.657Z,2.40
2018-06-11T15:53:27.260Z,5.10
2018-06-11T15:55:54.836Z,7.77
2018-06-11T15:58:22.393Z,5.90
2018-06-11T16:00:49.979Z,4.47
2018-06-11T16:03:17.658Z,3.20
2018-06-11T16:05:45.149Z,4.97
2018-06-11T16:08:12.645Z,5.30
2018-06-11T16:10:40.169Z,4.40
2018-06-11T16:13:07.665Z,3.63
2018-06-11T16:15:35.192Z,5.43
2018-06-11T16:18:02.807Z,6.67
2018-06-11T16:20:30.350Z,14.53
2018-06-11T16:22:57.881Z,9.70
2018-06-11T16:25:25.357Z,9.83
2018-06-11T16:27:52.854Z,8.60
2018-06-11T16:33:18.247Z,13.20
2018-06-11T16:35:45.888Z,10.90
2018-06-11T16:38:13.461Z,10.17
2018-06-11T16:40:41.085Z,7.90
2018-06-11T16:43:08.697Z,8.50
2018-06-11T16:45:36.302Z,6.43
2018-06-11T16:48:10.499Z,8.70
2018-06-11T16:50:38.342Z,5.67
2018-06-11T16:53:05.842Z,4.97
2018-06-11T16:55:33.336Z,10.23
2018-06-11T16:58:00.943Z,5.63
2018-06-11T17:00:28.736Z,3.80
2018-06-11T17:02:56.323Z,7.00
2018-06-11T17:05:27.831Z,4.70
2018-06-11T17:07:55.361Z,5.17
2018-06-11T17:10:22.918Z,7.23
2018-06-11T17:12:50.496Z,4.07
2018-06-11T17:15:18.073Z,3.43
2018-06-11T17:17:45.670Z,8.17
2018-06-11T17:20:13.197Z,2.43
2018-06-11T17:22:40.658Z,3.37
2018-06-11T17:25:08.236Z,2.00
2018-06-11T17:27:40.391Z,1.27
2018-06-11T17:30:08.139Z,0.80
2018-06-11T17:32:35.643Z,1.97
2018-06-11T17:35:03.323Z,1.37
2018-06-11T17:37:30.831Z,0.93
2018-06-11T17:39:58.418Z,1.47
2018-06-11T17:42:25.966Z,2.00
2018-06-11T17:44:53.701Z,2.87
2018-06-11T17:47:21.161Z,1.77
2018-06-11T17:49:48.690Z,1.43
2018-06-11T17:52:16.207Z,2.50
2018-06-11T17:54:43.838Z,0.83
2018-06-11T17:57:11.608Z,3.03
2018-06-11T17:59:39.206Z,1.37
2018-06-11T18:02:06.819Z,1.30
2018-06-11T18:04:34.444Z,0.80
2018-06-11T18:07:01.950Z,0.87
2018-06-11T18:09:29.754Z,2.93
2018-06-11T18:11:57.282Z,0.80
2018-06-11T18:14:25.010Z,1.17
2018-06-11T18:16:52.558Z,1.53
2018-06-11T18:19:20.145Z,1.43
2018-06-11T18:21:47.831Z,4.87
2018-06-11T18:24:15.314Z,1.53
2018-06-11T18:26:42.853Z,1.20
2018-06-11T18:29:10.654Z,1.30
2018-06-11T18:31:38.277Z,2.47
2018-06-11T18:34:06.074Z,1.33
2018-06-11T18:36:33.706Z,0.80
2018-06-11T18:39:02.524Z,1.37
2018-06-11T18:41:30.058Z,1.87
2018-06-11T18:43:57.598Z,3.60
2018-06-11T18:46:25.138Z,2.17
2018-06-11T18:48:52.714Z,1.17
2018-06-11T18:51:20.245Z,1.67
2018-06-11T18:53:47.796Z,0.93
2018-06-11T18:56:15.351Z,1.40
2018-06-11T18:58:42.899Z,1.17
2018-06-11T19:01:10.456Z,1.13
2018-06-11T19:03:38.048Z,1.43
2018-06-11T19:06:05.742Z,3.37
2018-06-11T19:08:38.298Z,2.40
2018-06-11T19:11:05.925Z,1.50
2018-06-11T19:13:33.484Z,4.43
2018-06-11T19:16:01.041Z,1.17
2018-06-11T19:18:28.666Z,3.50
2018-06-11T19:20:56.203Z,1.27
2018-06-11T19:23:23.791Z,3.13
2018-06-11T19:25:51.382Z,0.67
2018-06-11T19:28:18.964Z,1.20
2018-06-11T19:30:46.526Z,0.63
2018-06-11T19:33:14.211Z,1.17
2018-06-11T19:35:41.604Z,0.60
2018-06-11T19:38:09.143Z,1.60
2018-06-11T19:40:36.718Z,4.33
2018-06-11T19:43:04.533Z,1.27
2018-06-11T19:45:32.015Z,1.00
2018-06-11T19:47:59.610Z,1.47
2018-06-11T19:50:27.173Z,1.97
2018-06-11T19:52:54.733Z,1.07
2018-06-11T19:55:22.295Z,0.97
2018-06-11T19:57:49.863Z,4.73
2018-06-11T20:00:17.395Z,2.10
2018-06-11T20:02:44.956Z,2.37
2018-06-11T20:05:12.541Z,1.17
2018-06-11T20:07:40.071Z,3.37
2018-06-11T20:10:07.674Z,2.93
2018-06-11T20:12:35.189Z,2.33
2018-06-11T20:15:02.760Z,1.57
2018-06-11T20:17:30.292Z,2.80
2018-06-11T20:19:57.885Z,3.23
2018-06-11T20:22:25.390Z,1.73
2018-06-11T20:24:52.946Z,2.13
2018-06-11T20:27:20.534Z,6.30
2018-06-11T20:29:48.140Z,3.83
2018-06-11T20:32:20.387Z,1.57
2018-06-11T20:34:47.926Z,3.60
2018-06-11T20:37:15.442Z,2.63
2018-06-11T20:39:44.022Z,1.40
2018-06-11T20:42:11.522Z,4.97
2018-06-11T20:44:39.145Z,5.43
2018-06-11T20:47:06.586Z,3.00
2018-06-11T20:49:34.114Z,3.80
2018-06-11T20:52:01.861Z,2.13
2018-06-11T20:54:29.418Z,2.87
2018-06-11T20:56:56.899Z,2.90
2018-06-11T20:59:24.417Z,3.43
2018-06-11T21:01:51.955Z,2.83
2018-06-11T21:04:19.514Z,7.43
2018-06-11T21:06:47.049Z,4.73
2018-06-11T21:09:14.550Z,6.10
2018-06-11T21:11:42.054Z,4.40
2018-06-11T21:14:09.562Z,4.33
2018-06-11T21:16:37.109Z,5.40
2018-06-11T21:19:04.650Z,5.27
2018-06-11T21:21:32.125Z,7.67
2018-06-11T21:23:59.646Z,7.83
2018-06-11T21:26:27.142Z,7.13
2018-06-11T21:28:54.605Z,9.40
2018-06-11T21:31:22.134Z,6.90
2018-06-11T21:33:49.604Z,10.60
2018-06-11T21:36:17.391Z,9.50
2018-06-11T21:38:44.913Z,7.27
2018-06-11T21:41:12.564Z,9.20
2018-06-11T21:43:40.103Z,7.73
2018-06-11T21:46:07.634Z,6.97
2018-06-11T21:48:35.150Z,6.90
2018-06-11T21:51:02.665Z,14.13
2018-06-11T21:53:30.166Z,9.47
2018-06-11T21:55:57.686Z,6.37
2018-06-11T21:58:25.229Z,7.97
2018-06-11T22:00:52.778Z,11.87
2018-06-11T22:03:20.617Z,9.77
2018-06-11T22:05:48.118Z,11.13
2018-06-11T22:08:15.624Z,7.47
2018-06-11T22:10:43.172Z,6.07
2018-06-11T22:13:10.697Z,11.47
2018-06-11T22:15:38.261Z,8.73
2018-06-11T22:18:09.645Z,7.80
2018-06-11T22:20:37.148Z,10.43
2018-06-11T22:23:04.731Z,7.30
2018-06-11T22:25:32.365Z,6.87
2018-06-11T22:27:59.893Z,10.33
2018-06-11T22:30:27.424Z,8.63
2018-06-11T22:32:54.971Z,7.50
2018-06-11T22:35:22.550Z,15.87
2018-06-11T22:37:50.074Z,7.37
2018-06-11T22:40:17.565Z,9.53
2018-06-11T22:42:45.088Z,9.17
2018-06-11T22:45:12.589Z,6.83
2018-06-11T22:47:40.103Z,12.60
2018-06-11T22:50:07.586Z,10.87
2018-06-11T22:52:35.083Z,12.43
2018-06-11T22:55:02.659Z,11.80
2018-06-11T22:57:30.213Z,11.73
2018-06-11T22:59:57.727Z,8.37
2018-06-11T23:02:25.232Z,9.23
2018-06-11T23:04:52.928Z,10.83
2018-06-11T23:07:20.715Z,7.87
2018-06-11T23:09:48.237Z,11.53
2018-06-11T23:12:15.771Z,7.47
2018-06-11T23:14:43.301Z,5.33
2018-06-11T23:17:10.828Z,8.90
2018-06-11T23:19:38.305Z,9.53
2018-06-11T23:22:12.115Z,4.30
2018-06-11T23:24:45.938Z,7.97
2018-06-11T23:27:13.478Z,12.07
2018-06-11T23:29:41.006Z,9.67
2018-06-11T23:32:08.518Z,10.10
2018-06-11T23:34:36.019Z,6.07
2018-06-11T23:37:03.554Z,8.13
2018-06-11T23:39:31.065Z,6.73
2018-06-11T23:41:58.587Z,8.47
2018-06-11T23:44:26.062Z,9.37
2018-06-11T23:46:53.607Z,8.77
2018-06-11T23:49:21.447Z,7.43
2018-06-11T23:51:48.967Z,8.67
2018-06-11T23:54:16.459Z,12.13
2018-06-11T23:56:43.969Z,10.03
2018-06-11T23:59:11.547Z,5.90
